Time;durP1;ratioP1;P1;durP2;ratioP2;P2;SDS_P1;SDS_P2;PMS_P1;PMS_P2;Temp;Humidity;BMP_temperature;BMP_pressure;BME280_temperature;BME280_humidity;BME280_pressure;Samples;Min_cycle;Max_cycle;Signal;HPM_P1;HPM_P2
2021/03/09 00:00:37;;;;;;;17.97;11.23;;;1.90;99.90;;;;;;5034064;28;20241;-67
2021/03/09 00:03:04;;;;;;;13.23;10.63;;;1.80;99.90;;;;;;5034331;28;20191;-67
2021/03/09 00:05:29;;;;;;;12.70;11.25;;;1.90;99.90;;;;;;5034346;28;20167;-68
2021/03/09 00:07:55;;;;;;;12.70;10.23;;;1.90;99.90;;;;;;5034090;28;20168;-66
2021/03/09 00:10:21;;;;;;;12.70;10.03;;;1.90;99.90;;;;;;5034202;28;20175;-65
2021/03/09 00:12:46;;;;;;;13.13;11.60;;;1.90;99.90;;;;;;5033946;28;20190;-65
2021/03/09 00:15:12;;;;;;;14.73;10.63;;;1.90;99.90;;;;;;5034221;28;20198;-65
2021/03/09 00:17:38;;;;;;;14.30;11.50;;;1.90;99.90;;;;;;5034130;28;20175;-65
2021/03/09 00:20:04;;;;;;;14.00;12.23;;;1.90;99.90;;;;;;5032816;28;20417;-64
2021/03/09 00:22:30;;;;;;;14.60;12.80;;;1.90;99.90;;;;;;5033541;28;20218;-65
2021/03/09 00:24:55;;;;;;;13.77;10.30;;;1.80;99.90;;;;;;5033899;28;20248;-65
2021/03/09 00:27:21;;;;;;;14.60;10.60;;;1.90;99.90;;;;;;5033875;28;20256;-65
2021/03/09 00:29:46;;;;;;;14.77;10.83;;;1.90;99.90;;;;;;5033866;28;20512;-65
2021/03/09 00:32:12;;;;;;;14.33;9.67;;;1.90;99.90;;;;;;5033471;28;20677;-65
2021/03/09 00:34:38;;;;;;;13.30;11.80;;;1.90;99.90;;;;;;5033834;28;20643;-65
2021/03/09 00:37:04;;;;;;;15.90;11.33;;;1.90;99.90;;;;;;5033705;28;20197;-65
2021/03/09 00:39:30;;;;;;;12.07;10.43;;;1.90;99.90;;;;;;5033682;28;20417;-65
2021/03/09 00:41:55;;;;;;;16.10;11.50;;;1.90;99.90;;;;;;5033154;28;20197;-65
2021/03/09 00:44:21;;;;;;;12.83;11.13;;;1.90;99.90;;;;;;5033628;28;20172;-65
2021/03/09 00:46:49;;;;;;;15.47;12.50;;;1.90;99.90;;;;;;5033676;28;20245;-65
2021/03/09 00:49:15;;;;;;;16.42;9.90;;;1.80;99.90;;;;;;5033514;28;20653;-65
2021/03/09 00:51:40;;;;;;;16.67;11.50;;;1.90;99.90;;;;;;5032942;28;20229;-65
2021/03/09 00:54:06;;;;;;;13.80;11.50;;;1.90;99.90;;;;;;5033466;28;20235;-65
2021/03/09 00:56:31;;;;;;;14.40;12.80;;;1.90;99.90;;;;;;5033346;28;20658;-65
2021/03/09 00:58:57;;;;;;;18.60;11.37;;;1.90;99.90;;;;;;5033208;28;20169;-65
2021/03/09 01:01:23;;;;;;;17.93;13.00;;;1.90;99.90;;;;;;5032882;28;20303;-65
2021/03/09 01:03:48;;;;;;;11.70;10.60;;;1.90;99.90;;;;;;5033142;28;20686;-64
2021/03/09 01:06:14;;;;;;;12.10;10.97;;;1.90;99.90;;;;;;5033096;28;20213;-65
2021/03/09 01:08:39;;;;;;;15.50;11.10;;;1.90;99.90;;;;;;5032970;28;20182;-65
2021/03/09 01:11:05;;;;;;;16.00;11.00;;;1.90;99.90;;;;;;5032699;28;20198;-65
2021/03/09 01:13:30;;;;;;;11.07;9.87;;;1.90;99.90;;;;;;5033086;28;20208;-65
2021/03/09 01:15:56;;;;;;;11.20;10.10;;;1.90;99.90;;;;;;5033084;28;20170;-65
2021/03/09 01:18:22;;;;;;;14.80;10.67;;;1.90;99.90;;;;;;5032976;28;20205;-65
2021/03/09 01:20:48;;;;;;;13.57;10.03;;;1.90;99.90;;;;;;5032307;28;20557;-65
2021/03/09 01:23:14;;;;;;;14.10;9.90;;;1.90;99.90;;;;;;5032920;28;20244;-64
2021/03/09 01:25:40;;;;;;;11.63;9.70;;;2.00;99.90;;;;;;5032998;28;20433;-65
2021/03/09 01:28:06;;;;;;;13.03;10.50;;;2.00;99.90;;;;;;5032897;28;20616;-65
2021/03/09 01:30:32;;;;;;;11.73;9.73;;;2.00;99.90;;;;;;5032352;28;20171;-65
2021/03/09 01:32:57;;;;;;;14.20;10.00;;;1.90;99.90;;;;;;5032627;28;20493;-65
2021/03/09 01:35:23;;;;;;;14.60;11.03;;;2.00;99.90;;;;;;5032626;28;20198;-65
2021/03/09 01:37:49;;;;;;;12.17;10.87;;;1.90;99.90;;;;;;5032465;28;20257;-65
2021/03/09 01:40:15;;;;;;;14.47;11.20;;;1.90;99.90;;;;;;5032388;28;20172;-65
2021/03/09 01:42:40;;;;;;;13.73;11.18;;;1.90;99.90;;;;;;5032180;28;20188;-64
2021/03/09 01:45:07;;;;;;;10.60;9.53;;;1.90;99.90;;;;;;5032624;28;20174;-65
2021/03/09 01:47:41;;;;;;;11.82;10.23;;;1.90;99.90;;;;;;5032543;28;20167;-64
2021/03/09 01:50:08;;;;;;;10.88;9.75;;;1.90;99.90;;;;;;5032362;28;20540;-65
2021/03/09 01:52:34;;;;;;;14.98;11.05;;;2.00;99.90;;;;;;5031853;28;20199;-65
2021/03/09 01:55:01;;;;;;;12.20;10.07;;;2.00;99.90;;;;;;5032574;28;20224;-65
2021/03/09 01:57:26;;;;;;;11.43;10.27;;;2.00;99.90;;;;;;5032304;28;20400;-65
2021/03/09 01:59:53;;;;;;;9.13;7.97;;;2.00;99.90;;;;;;5032276;28;20163;-65
2021/03/09 02:02:19;;;;;;;12.70;10.27;;;2.00;99.90;;;;;;5031839;28;20286;-65
2021/03/09 02:04:45;;;;;;;11.00;9.10;;;2.00;99.90;;;;;;5032193;28;20986;-66
2021/03/09 02:07:10;;;;;;;15.83;11.50;;;2.00;99.90;;;;;;5032250;28;20634;-65
2021/03/09 02:09:36;;;;;;;11.23;9.83;;;2.00;99.90;;;;;;5032032;28;20638;-65
2021/03/09 02:12:15;;;;;;;12.97;10.30;;;2.00;99.90;;;;;;5031878;28;20694;-65
2021/03/09 02:14:51;;;;;;;11.77;10.33;;;2.10;99.90;;;;;;5032168;28;20181;-65
2021/03/09 02:17:44;;;;;;;13.23;10.48;;;2.10;99.90;;;;;;5031969;28;20467;-65
2021/03/09 02:20:45;;;;;;;13.65;10.50;;;2.10;99.90;;;;;;5031972;28;20174;-64
2021/03/09 02:23:17;;;;;;;17.73;11.68;;;2.20;99.90;;;;;;5032042;28;20166;-65
2021/03/09 02:26:20;;;;;;;11.45;10.35;;;2.20;99.90;;;;;;5031924;28;20177;-65
2021/03/09 02:29:04;;;;;;;12.97;11.60;;;2.20;99.90;;;;;;5031825;28;20167;-65
2021/03/09 02:31:31;;;;;;;15.83;12.23;;;2.20;99.90;;;;;;5031530;28;20421;-65
2021/03/09 02:34:04;;;;;;;14.63;12.30;;;2.10;99.90;;;;;;5031815;28;20412;-64
2021/03/09 02:36:31;;;;;;;12.70;11.35;;;2.20;99.90;;;;;;5031854;28;20181;-65
2021/03/09 02:39:02;;;;;;;13.90;10.90;;;2.10;99.90;;;;;;5031860;28;20179;-64
2021/03/09 02:41:29;;;;;;;15.95;12.35;;;2.10;99.90;;;;;;5031354;28;20799;-65
2021/03/09 02:43:56;;;;;;;13.73;11.10;;;2.10;99.90;;;;;;5034557;28;20548;-65
2021/03/09 02:46:25;;;;;;;14.17;11.60;;;2.20;99.90;;;;;;5035807;28;20408;-64
2021/03/09 02:48:52;;;;;;;13.20;11.80;;;2.20;99.90;;;;;;5035974;28;20399;-64
2021/03/09 02:51:19;;;;;;;12.35;10.52;;;2.20;99.90;;;;;;5035506;28;20430;-65
2021/03/09 02:53:52;;;;;;;15.93;11.90;;;2.10;99.90;;;;;;5035652;28;20190;-65
2021/03/09 02:56:18;;;;;;;17.70;13.70;;;2.10;99.90;;;;;;5035652;28;20932;-64
2021/03/09 02:58:48;;;;;;;15.80;13.03;;;2.20;99.90;;;;;;5035563;28;20417;-65
2021/03/09 03:01:14;;;;;;;17.27;13.70;;;2.20;99.90;;;;;;5035264;28;20462;-65
2021/03/09 03:03:45;;;;;;;18.93;13.43;;;2.10;99.90;;;;;;5034267;28;20419;-64
2021/03/09 03:06:11;;;;;;;18.40;14.50;;;2.10;99.90;;;;;;5035533;28;20410;-65
2021/03/09 03:08:39;;;;;;;21.00;12.40;;;2.20;99.90;;;;;;5035362;28;20405;-64
2021/03/09 03:11:05;;;;;;;19.30;13.20;;;2.20;99.90;;;;;;5035069;28;20421;-65
2021/03/09 03:13:33;;;;;;;17.58;11.80;;;2.20;99.90;;;;;;5035234;28;20430;-65
2021/03/09 03:16:04;;;;;;;21.40;14.17;;;2.20;99.90;;;;;;5035949;28;20172;-65
2021/03/09 03:18:31;;;;;;;15.43;13.80;;;2.20;99.90;;;;;;5035197;28;20497;-62
2021/03/09 03:20:56;;;;;;;15.37;13.50;;;2.30;99.90;;;;;;5034781;28;20492;-61
2021/03/09 03:23:23;;;;;;;19.30;16.00;;;2.20;99.90;;;;;;5035172;28;20818;-61
2021/03/09 03:25:54;;;;;;;15.60;12.27;;;2.30;99.90;;;;;;5035203;28;20167;-62
2021/03/09 03:28:21;;;;;;;19.93;15.20;;;2.30;99.90;;;;;;5035023;28;20442;-63
2021/03/09 03:30:48;;;;;;;19.90;13.87;;;2.20;99.90;;;;;;5034715;28;20405;-61
2021/03/09 03:33:14;;;;;;;25.90;15.07;;;2.30;99.90;;;;;;5035000;28;20787;-63
2021/03/09 03:35:40;;;;;;;22.60;16.00;;;2.30;99.90;;;;;;5035028;28;20418;-64
2021/03/09 03:38:06;;;;;;;23.70;15.13;;;2.30;99.90;;;;;;5034854;28;20548;-63
2021/03/09 03:40:32;;;;;;;24.58;16.70;;;2.30;99.90;;;;;;5034461;28;20792;-61
2021/03/09 03:42:58;;;;;;;23.67;17.17;;;2.40;99.90;;;;;;5034708;28;20191;-63
2021/03/09 03:45:25;;;;;;;21.43;15.77;;;2.40;99.90;;;;;;5034807;28;20172;-63
2021/03/09 03:47:58;;;;;;;28.75;19.60;;;2.40;99.90;;;;;;5034740;28;20402;-62
2021/03/09 03:50:24;;;;;;;24.37;17.83;;;2.40;99.90;;;;;;5034503;28;20161;-65
2021/03/09 03:52:58;;;;;;;26.87;19.27;;;2.40;99.90;;;;;;5034372;28;21037;-61
2021/03/09 03:56:01;;;;;;;30.37;19.23;;;2.30;99.90;;;;;;5034526;28;20422;-63
2021/03/09 03:58:46;;;;;;;27.10;16.00;;;2.40;99.90;;;;;;5034522;28;20409;-62
2021/03/09 04:01:14;;;;;;;27.35;19.02;;;2.30;99.90;;;;;;5034034;28;20939;-64
2021/03/09 04:03:41;;;;;;;27.02;18.33;;;2.20;99.90;;;;;;5034485;28;20202;-63
2021/03/09 04:06:08;;;;;;;26.33;18.08;;;2.30;99.90;;;;;;5034403;28;20612;-63
2021/03/09 04:08:39;;;;;;;28.55;19.73;;;2.20;99.90;;;;;;5034351;28;20269;-61
2021/03/09 04:11:06;;;;;;;22.87;17.10;;;2.20;99.90;;;;;;5033967;28;20160;-62
2021/03/09 04:13:36;;;;;;;25.63;18.37;;;2.20;99.90;;;;;;5034358;28;20414;-62
2021/03/09 04:16:03;;;;;;;37.75;21.38;;;2.20;99.90;;;;;;5034293;28;20449;-61
2021/03/09 04:18:30;;;;;;;34.63;22.00;;;2.20;99.90;;;;;;5034097;28;20186;-64
2021/03/09 04:20:57;;;;;;;27.52;18.92;;;2.10;99.90;;;;;;5033761;28;20456;-63
2021/03/09 04:23:24;;;;;;;29.70;18.03;;;2.10;99.90;;;;;;5034089;28;20177;-63
2021/03/09 04:25:52;;;;;;;27.23;16.87;;;2.20;99.90;;;;;;5034102;28;20827;-62
2021/03/09 04:28:18;;;;;;;27.17;19.20;;;2.20;99.90;;;;;;5033862;28;20409;-64
2021/03/09 04:30:44;;;;;;;28.10;18.90;;;2.20;99.90;;;;;;5032383;28;20190;-62
2021/03/09 04:33:10;;;;;;;24.63;16.90;;;2.20;99.90;;;;;;5033925;28;20410;-62
2021/03/09 04:35:36;;;;;;;31.17;17.40;;;2.20;99.90;;;;;;5033845;28;20982;-62
2021/03/09 04:38:02;;;;;;;27.73;18.43;;;2.10;99.90;;;;;;5033764;28;20407;-61
2021/03/09 04:40:30;;;;;;;27.97;18.47;;;2.00;99.90;;;;;;5033460;28;20604;-62
2021/03/09 04:42:56;;;;;;;30.90;18.80;;;2.10;99.90;;;;;;5033611;28;20420;-60
2021/03/09 04:45:22;;;;;;;22.70;16.20;;;2.10;99.90;;;;;;5033691;28;20453;-64
2021/03/09 04:47:47;;;;;;;25.10;15.77;;;2.10;99.90;;;;;;5033493;28;20512;-61
2021/03/09 04:50:15;;;;;;;17.50;14.00;;;2.10;99.90;;;;;;5033529;28;20177;-63
2021/03/09 04:52:47;;;;;;;24.03;16.20;;;2.10;99.90;;;;;;5033104;28;20206;-63
2021/03/09 04:55:16;;;;;;;23.95;16.08;;;2.10;99.90;;;;;;5033601;28;20434;-61
2021/03/09 04:57:43;;;;;;;21.83;14.53;;;2.00;99.90;;;;;;5033424;28;20261;-63
2021/03/09 05:00:11;;;;;;;21.42;14.88;;;2.10;99.90;;;;;;5033329;28;20405;-63
2021/03/09 05:02:37;;;;;;;20.47;14.93;;;2.10;99.90;;;;;;5033017;28;20196;-63
2021/03/09 05:05:03;;;;;;;22.13;14.40;;;2.00;99.90;;;;;;5033050;28;20410;-62
2021/03/09 05:07:29;;;;;;;22.20;13.90;;;2.10;99.90;;;;;;5032952;28;20171;-63
2021/03/09 05:09:54;;;;;;;21.07;14.37;;;2.10;99.90;;;;;;5033130;28;20461;-66
2021/03/09 05:12:20;;;;;;;26.20;15.40;;;2.00;99.90;;;;;;5031491;28;20203;-61
2021/03/09 05:14:45;;;;;;;22.10;15.00;;;2.00;99.90;;;;;;5033158;28;20218;-63
2021/03/09 05:17:11;;;;;;;24.40;14.27;;;2.00;99.90;;;;;;5033117;28;20178;-63
2021/03/09 05:19:37;;;;;;;17.47;13.20;;;1.90;99.90;;;;;;5032909;28;20203;-64
2021/03/09 05:22:02;;;;;;;17.97;12.77;;;1.80;99.90;;;;;;5032534;28;20458;-60
2021/03/09 05:24:28;;;;;;;19.43;13.30;;;1.90;99.90;;;;;;5032928;28;20177;-63
2021/03/09 05:26:54;;;;;;;18.73;11.80;;;1.90;99.90;;;;;;5032843;28;20211;-63
2021/03/09 05:29:20;;;;;;;20.63;12.40;;;1.90;99.90;;;;;;5032802;28;20168;-61
2021/03/09 05:31:46;;;;;;;22.43;13.37;;;1.90;99.90;;;;;;5032402;28;20199;-64
2021/03/09 05:34:11;;;;;;;19.37;12.40;;;1.90;99.90;;;;;;5032708;28;20186;-64
2021/03/09 05:36:37;;;;;;;16.90;10.73;;;1.90;99.90;;;;;;5032738;28;20567;-60
2021/03/09 05:39:03;;;;;;;20.57;12.27;;;1.90;99.90;;;;;;5032623;28;20649;-60
2021/03/09 05:41:29;;;;;;;18.95;12.93;;;1.90;99.90;;;;;;5032021;28;20207;-62
2021/03/09 05:43:55;;;;;;;18.00;11.40;;;1.90;99.90;;;;;;5032543;28;20167;-61
2021/03/09 05:46:20;;;;;;;25.02;13.65;;;1.80;99.90;;;;;;5032589;28;20225;-62
2021/03/09 05:48:46;;;;;;;17.00;11.77;;;1.90;99.90;;;;;;5032378;28;20198;-64
2021/03/09 05:51:12;;;;;;;19.07;12.33;;;1.90;99.90;;;;;;5032184;28;20205;-62
2021/03/09 05:53:37;;;;;;;15.37;11.97;;;1.90;99.90;;;;;;5032379;28;20186;-61
2021/03/09 05:56:07;;;;;;;16.93;11.33;;;1.90;99.90;;;;;;5032311;28;20266;-63
2021/03/09 05:58:33;;;;;;;23.17;12.07;;;2.00;99.90;;;;;;5032279;28;20171;-64
2021/03/09 06:00:59;;;;;;;21.77;12.40;;;1.90;99.90;;;;;;5031898;28;20194;-62
2021/03/09 06:03:27;;;;;;;18.43;13.80;;;1.90;99.90;;;;;;5032171;28;20408;-64
2021/03/09 06:05:53;;;;;;;19.40;12.30;;;1.90;99.90;;;;;;5032291;28;20406;-62
2021/03/09 06:08:19;;;;;;;16.95;12.27;;;2.00;99.90;;;;;;5032125;28;20176;-63
2021/03/09 06:10:45;;;;;;;17.93;11.40;;;2.00;99.90;;;;;;5031803;28;20550;-62
2021/03/09 06:13:33;;;;;;;14.55;10.85;;;2.00;99.90;;;;;;5032187;28;20492;-62
2021/03/09 06:15:59;;;;;;;19.67;11.63;;;2.00;99.90;;;;;;5032118;28;20181;-61
2021/03/09 06:18:25;;;;;;;16.20;11.90;;;1.90;99.90;;;;;;5031094;28;20496;-64
2021/03/09 06:21:06;;;;;;;15.57;10.60;;;2.00;99.90;;;;;;5031533;28;20205;-64
2021/03/09 06:23:32;;;;;;;18.48;11.25;;;2.10;99.90;;;;;;5032071;28;20173;-59
2021/03/09 06:25:58;;;;;;;16.63;10.73;;;2.10;99.90;;;;;;5031989;28;20193;-62
2021/03/09 06:28:30;;;;;;;20.50;12.37;;;2.10;99.90;;;;;;5031848;28;20175;-63
2021/03/09 06:30:56;;;;;;;17.05;11.95;;;2.10;99.90;;;;;;5030329;28;20181;-61
2021/03/09 06:33:29;;;;;;;16.80;11.10;;;2.10;99.90;;;;;;5031766;28;20657;-63
2021/03/09 06:35:55;;;;;;;22.10;12.75;;;2.10;99.90;;;;;;5031904;28;20179;-60
2021/03/09 06:38:26;;;;;;;20.05;12.68;;;2.00;99.90;;;;;;5031765;28;20257;-61
2021/03/09 06:41:08;;;;;;;26.63;14.40;;;2.10;99.90;;;;;;5031332;28;20572;-62
2021/03/09 06:43:35;;;;;;;24.30;14.43;;;2.10;99.90;;;;;;5031782;28;20166;-61
2021/03/09 06:46:20;;;;;;;22.10;15.68;;;2.20;99.90;;;;;;5031783;28;20165;-63
2021/03/09 06:48:51;;;;;;;19.95;13.48;;;2.10;99.90;;;;;;5031720;28;20176;-61
2021/03/09 06:51:28;;;;;;;25.75;13.57;;;2.10;99.90;;;;;;5031139;28;20197;-62
2021/03/09 06:54:04;;;;;;;22.58;12.93;;;2.10;99.90;;;;;;5030449;28;20202;-63
2021/03/09 06:56:31;;;;;;;23.45;14.43;;;2.20;99.90;;;;;;5031597;28;20214;-64
2021/03/09 06:59:22;;;;;;;25.13;14.90;;;2.20;99.90;;;;;;5031504;28;20201;-63
2021/03/09 07:02:13;;;;;;;18.20;12.85;;;2.10;99.90;;;;;;5031175;28;20198;-66
2021/03/09 07:04:41;;;;;;;23.83;15.93;;;2.10;99.90;;;;;;5031469;28;20224;-64
2021/03/09 07:07:09;;;;;;;21.90;14.27;;;2.20;99.90;;;;;;5031596;28;20527;-62
2021/03/09 07:09:35;;;;;;;23.58;15.10;;;2.20;99.90;;;;;;5031449;28;20171;-63
2021/03/09 07:12:08;;;;;;;19.63;12.77;;;2.30;99.90;;;;;;5031161;28;20186;-62
2021/03/09 07:14:33;;;;;;;22.50;15.10;;;2.30;99.90;;;;;;5031529;28;20253;-62
2021/03/09 07:17:02;;;;;;;23.70;15.37;;;2.30;99.90;;;;;;5031401;28;20488;-62
2021/03/09 07:19:37;;;;;;;22.63;15.13;;;2.30;99.90;;;;;;5031436;28;20193;-62
2021/03/09 07:22:04;;;;;;;24.17;14.52;;;2.30;99.90;;;;;;5031015;28;20462;-62
2021/03/09 07:24:30;;;;;;;23.48;14.82;;;2.30;99.90;;;;;;5031574;28;20250;-59
2021/03/09 07:27:02;;;;;;;25.70;17.80;;;2.30;99.90;;;;;;5031788;28;20169;-58
2021/03/09 07:29:28;;;;;;;22.98;16.33;;;2.30;99.90;;;;;;5033223;28;20496;-63
2021/03/09 07:31:56;;;;;;;23.23;16.97;;;2.20;99.90;;;;;;5034568;28;20194;-62
2021/03/09 07:34:23;;;;;;;28.35;17.33;;;2.30;99.90;;;;;;5035024;28;20506;-62
2021/03/09 07:36:49;;;;;;;28.42;18.17;;;2.30;99.90;;;;;;5035162;28;20178;-63
2021/03/09 07:39:17;;;;;;;21.80;15.43;;;2.30;99.90;;;;;;5034949;28;20669;-62
2021/03/09 07:41:43;;;;;;;29.88;18.08;;;2.30;99.90;;;;;;5034448;28;20301;-62
2021/03/09 07:44:09;;;;;;;23.33;14.43;;;2.30;99.90;;;;;;5034886;28;20254;-62
2021/03/09 07:46:36;;;;;;;25.27;17.83;;;2.20;99.90;;;;;;5034692;28;20402;-62
2021/03/09 07:49:02;;;;;;;23.38;17.60;;;2.30;99.90;;;;;;5034758;28;20218;-62
2021/03/09 07:51:27;;;;;;;27.50;18.10;;;2.20;99.90;;;;;;5034353;28;20278;-65
2021/03/09 07:54:13;;;;;;;29.40;16.90;;;2.20;99.90;;;;;;5034763;28;20654;-66
2021/03/09 07:57:18;;;;;;;30.58;18.77;;;2.30;99.90;;;;;;5034556;28;20732;-64
2021/03/09 07:59:56;;;;;;;26.45;16.88;;;2.20;99.90;;;;;;5034582;28;20175;-64
2021/03/09 08:02:40;;;;;;;26.43;16.00;;;2.30;99.90;;;;;;5033991;28;20206;-62
2021/03/09 08:05:07;;;;;;;27.50;17.42;;;2.30;99.90;;;;;;5034359;28;20398;-65
2021/03/09 08:07:53;;;;;;;28.93;17.00;;;2.40;99.90;;;;;;5034610;28;20548;-65
2021/03/09 08:10:33;;;;;;;32.10;19.48;;;2.30;99.90;;;;;;5034360;28;20459;-65
2021/03/09 08:13:08;;;;;;;26.50;17.88;;;2.30;99.90;;;;;;5034294;28;20186;-65
2021/03/09 08:15:40;;;;;;;27.40;19.67;;;2.30;99.90;;;;;;5034093;28;20536;-65
2021/03/09 08:18:19;;;;;;;28.30;19.98;;;2.30;99.90;;;;;;5034194;28;20636;-65
2021/03/09 08:20:58;;;;;;;26.13;17.80;;;2.20;99.90;;;;;;5033785;28;20244;-65
2021/03/09 08:23:36;;;;;;;23.23;15.75;;;2.20;99.90;;;;;;5034138;28;20175;-65
2021/03/09 08:26:29;;;;;;;24.10;17.30;;;2.30;99.90;;;;;;5034001;28;20170;-65
2021/03/09 08:28:55;;;;;;;26.05;17.25;;;2.30;99.90;;;;;;5033774;28;20183;-65
2021/03/09 08:31:20;;;;;;;28.65;18.58;;;2.40;99.90;;;;;;5033551;28;20196;-64
2021/03/09 08:33:53;;;;;;;24.13;16.93;;;2.30;99.90;;;;;;5033891;28;20590;-65
2021/03/09 08:36:26;;;;;;;26.13;17.10;;;2.30;99.90;;;;;;5033826;28;20166;-64
2021/03/09 08:39:18;;;;;;;27.03;15.97;;;2.30;99.90;;;;;;5033830;28;20205;-65
2021/03/09 08:41:44;;;;;;;24.02;16.85;;;2.30;99.90;;;;;;5028729;28;20556;-64
2021/03/09 08:44:21;;;;;;;19.07;15.37;;;2.40;99.90;;;;;;5033735;28;20663;-65
2021/03/09 08:47:09;;;;;;;27.05;17.63;;;2.50;99.90;;;;;;5033686;28;20166;-64
2021/03/09 08:52:07;;;;;;;23.60;14.83;;;2.40;99.90;;;;;;5032997;28;20225;-66
2021/03/09 08:54:43;;;;;;;25.17;16.27;;;2.50;99.90;;;;;;5033579;28;20215;-66
2021/03/09 08:57:24;;;;;;;24.27;14.85;;;2.50;99.90;;;;;;5033432;28;20594;-66
2021/03/09 08:59:51;;;;;;;24.60;17.27;;;2.40;99.90;;;;;;5033370;28;20244;-66
2021/03/09 09:02:19;;;;;;;21.30;16.67;;;2.40;99.90;;;;;;5032953;28;20234;-66
2021/03/09 09:04:51;;;;;;;24.58;17.35;;;2.50;99.90;;;;;;5033409;28;20249;-65
2021/03/09 09:07:24;;;;;;;24.60;14.87;;;2.60;99.90;;;;;;5033380;28;20168;-66
2021/03/09 09:09:58;;;;;;;28.58;15.63;;;2.50;99.90;;;;;;5033335;28;20906;-65
2021/03/09 09:12:36;;;;;;;21.63;14.40;;;2.60;99.90;;;;;;5032877;28;20198;-65
2021/03/09 09:15:07;;;;;;;23.00;14.65;;;2.60;99.90;;;;;;5033152;28;20905;-65
2021/03/09 09:17:35;;;;;;;21.58;14.85;;;2.60;99.90;;;;;;5033668;28;20539;-66
2021/03/09 09:20:23;;;;;;;19.73;15.05;;;2.70;99.90;;;;;;5033031;28;20191;-67
2021/03/09 09:22:52;;;;;;;19.92;14.85;;;2.60;99.90;;;;;;5032843;28;20232;-65
2021/03/09 09:25:18;;;;;;;16.38;14.10;;;2.70;99.90;;;;;;5033352;28;20237;-66
2021/03/09 09:27:47;;;;;;;17.63;14.47;;;2.70;99.90;;;;;;5033414;28;20257;-65
2021/03/09 09:30:19;;;;;;;21.65;15.15;;;2.70;99.90;;;;;;5032833;28;20775;-66
2021/03/09 09:32:47;;;;;;;16.30;13.20;;;2.70;99.90;;;;;;5032734;28;20682;-67
2021/03/09 09:35:13;;;;;;;16.20;12.70;;;2.70;99.90;;;;;;5032882;28;20207;-66
2021/03/09 09:37:53;;;;;;;18.00;14.13;;;2.70;99.90;;;;;;5032805;28;20263;-67
2021/03/09 09:40:21;;;;;;;19.03;14.20;;;2.70;99.90;;;;;;5032971;28;20393;-63
2021/03/09 09:42:59;;;;;;;23.43;15.20;;;2.70;99.90;;;;;;5032404;28;20423;-63
2021/03/09 09:45:26;;;;;;;22.33;14.25;;;2.80;99.90;;;;;;5032609;28;20401;-63
2021/03/09 09:47:52;;;;;;;16.40;13.15;;;2.80;99.90;;;;;;5032434;28;20222;-62
2021/03/09 09:50:21;;;;;;;15.90;13.13;;;2.90;99.90;;;;;;5032488;28;20156;-63
2021/03/09 09:52:52;;;;;;;22.93;15.70;;;2.90;99.90;;;;;;5032052;28;20863;-63
2021/03/09 09:55:22;;;;;;;16.87;14.27;;;2.90;99.90;;;;;;5032444;28;20411;-64
2021/03/09 09:57:52;;;;;;;15.00;13.43;;;3.00;99.90;;;;;;5032327;28;20761;-63
2021/03/09 10:00:23;;;;;;;16.10;12.57;;;3.00;99.90;;;;;;5032361;28;20401;-63
2021/03/09 10:03:14;;;;;;;17.90;14.27;;;3.10;99.90;;;;;;5032195;28;20778;-62
2021/03/09 10:05:42;;;;;;;18.77;13.93;;;3.00;99.90;;;;;;5032257;28;20484;-68
2021/03/09 10:08:09;;;;;;;16.90;14.27;;;3.10;99.90;;;;;;5032164;28;20453;-71
2021/03/09 10:10:35;;;;;;;21.73;15.57;;;3.10;99.90;;;;;;5031931;28;20946;-65
2021/03/09 10:13:17;;;;;;;18.43;14.33;;;3.10;99.90;;;;;;5033020;28;20419;-63
2021/03/09 10:15:49;;;;;;;19.67;15.50;;;3.20;99.90;;;;;;5032190;28;20392;-64
2021/03/09 10:18:30;;;;;;;19.30;15.00;;;3.20;99.90;;;;;;5031979;28;20422;-65
2021/03/09 10:21:11;;;;;;;18.47;16.10;;;3.30;99.90;;;;;;5030314;28;20459;-64
2021/03/09 10:23:53;;;;;;;22.30;16.23;;;3.20;99.90;;;;;;5031991;28;20988;-65
2021/03/09 10:26:35;;;;;;;21.73;17.33;;;3.30;99.90;;;;;;5031885;28;20939;-65
2021/03/09 10:29:13;;;;;;;21.50;15.40;;;3.40;99.90;;;;;;5031879;28;20399;-63
2021/03/09 10:31:48;;;;;;;23.13;16.83;;;3.40;99.90;;;;;;5031598;28;20918;-65
2021/03/09 10:34:16;;;;;;;24.93;18.10;;;3.40;99.90;;;;;;5031975;28;20446;-65
2021/03/09 10:37:02;;;;;;;20.73;16.43;;;3.50;99.90;;;;;;5031858;28;20403;-68
2021/03/09 10:39:31;;;;;;;22.43;16.80;;;3.60;99.90;;;;;;5031837;28;20422;-68
2021/03/09 10:41:58;;;;;;;25.70;18.50;;;3.60;99.90;;;;;;5031337;28;21046;-65
2021/03/09 10:44:36;;;;;;;20.70;17.90;;;3.60;99.90;;;;;;5031759;28;20408;-66
2021/03/09 10:47:04;;;;;;;23.60;18.83;;;3.60;99.90;;;;;;5031743;28;20403;-65
2021/03/09 10:49:31;;;;;;;25.20;19.07;;;3.70;99.90;;;;;;5031653;28;20410;-66
2021/03/09 10:52:04;;;;;;;27.83;20.57;;;3.70;99.90;;;;;;5031236;28;20446;-66
2021/03/09 10:54:30;;;;;;;29.60;20.30;;;3.70;99.90;;;;;;5031675;28;20399;-65
2021/03/09 10:56:56;;;;;;;25.13;18.50;;;3.70;99.90;;;;;;5031673;28;20410;-66
2021/03/09 10:59:23;;;;;;;29.60;20.87;;;3.60;99.90;;;;;;5031592;28;20407;-66
2021/03/09 11:01:49;;;;;;;23.57;17.43;;;3.60;99.90;;;;;;5031189;28;20557;-66
2021/03/09 11:04:15;;;;;;;25.00;19.27;;;3.70;99.90;;;;;;5033091;28;20816;-67
2021/03/09 11:06:40;;;;;;;27.47;20.67;;;3.70;99.90;;;;;;5035601;28;20399;-66
2021/03/09 11:09:06;;;;;;;26.50;19.13;;;3.70;99.90;;;;;;5035476;28;20245;-66
2021/03/09 11:11:32;;;;;;;30.20;20.57;;;3.60;99.90;;;;;;5035107;28;20238;-65
2021/03/09 11:13:57;;;;;;;26.97;18.60;;;3.80;99.90;;;;;;5035389;28;20169;-66
2021/03/09 11:16:23;;;;;;;28.40;20.87;;;3.80;99.90;;;;;;5035357;28;20226;-65
2021/03/09 11:18:49;;;;;;;31.13;21.80;;;3.70;99.90;;;;;;5035237;28;20165;-66
2021/03/09 11:21:14;;;;;;;28.27;21.17;;;3.80;99.90;;;;;;5034747;28;20214;-66
2021/03/09 11:23:40;;;;;;;30.60;22.93;;;3.70;99.90;;;;;;5035249;28;20195;-64
2021/03/09 11:26:06;;;;;;;31.57;20.80;;;3.70;99.90;;;;;;5033851;28;20200;-63
2021/03/09 11:28:33;;;;;;;30.67;19.00;;;3.60;99.90;;;;;;5034777;28;20179;-63
2021/03/09 11:30:59;;;;;;;30.50;21.17;;;3.70;99.90;;;;;;5026271;28;20415;-64
2021/03/09 11:33:25;;;;;;;31.83;20.60;;;3.70;99.90;;;;;;5035017;28;20414;-65
2021/03/09 11:35:50;;;;;;;27.67;19.80;;;3.60;99.90;;;;;;5035005;28;20706;-64
2021/03/09 11:38:16;;;;;;;25.27;19.10;;;3.60;99.90;;;;;;5034921;28;20660;-65
2021/03/09 11:40:41;;;;;;;24.90;18.80;;;3.60;99.90;;;;;;5034460;28;20173;-63
2021/03/09 11:43:07;;;;;;;22.33;18.27;;;3.70;99.90;;;;;;5034872;28;20193;-64
2021/03/09 11:45:32;;;;;;;23.40;17.23;;;3.80;99.90;;;;;;5034946;28;20184;-64
2021/03/09 11:47:58;;;;;;;24.00;18.60;;;3.80;99.90;;;;;;5033616;28;20200;-63
2021/03/09 11:50:24;;;;;;;28.47;19.63;;;3.70;99.90;;;;;;5034796;28;20200;-63
2021/03/09 11:52:49;;;;;;;21.73;17.33;;;3.70;99.90;;;;;;5034372;28;20209;-65
2021/03/09 11:55:15;;;;;;;23.47;17.53;;;3.70;99.90;;;;;;5034612;28;20176;-64
2021/03/09 11:57:41;;;;;;;27.47;19.33;;;3.80;99.90;;;;;;5034595;28;20176;-63
2021/03/09 12:00:07;;;;;;;30.53;20.70;;;3.80;99.90;;;;;;5034451;28;20169;-64
2021/03/09 12:02:33;;;;;;;24.60;21.00;;;3.90;99.90;;;;;;5033971;28;20243;-64
2021/03/09 12:04:59;;;;;;;22.93;16.50;;;3.90;99.90;;;;;;5034567;28;20429;-65
2021/03/09 12:07:25;;;;;;;20.80;17.00;;;4.00;99.90;;;;;;5034452;28;20824;-63
2021/03/09 12:09:51;;;;;;;25.70;18.50;;;4.00;99.90;;;;;;5034341;28;20164;-65
2021/03/09 12:12:17;;;;;;;23.40;17.20;;;4.00;99.90;;;;;;5034258;28;20800;-65
2021/03/09 12:14:42;;;;;;;22.90;17.57;;;4.10;99.90;;;;;;5033701;28;20187;-64
2021/03/09 12:17:08;;;;;;;23.17;16.83;;;4.10;99.90;;;;;;5033331;28;20254;-65
2021/03/09 12:19:33;;;;;;;28.30;19.00;;;4.20;99.90;;;;;;5034095;28;20187;-65
2021/03/09 12:21:59;;;;;;;20.00;16.47;;;4.10;99.90;;;;;;5033824;28;20231;-64
2021/03/09 12:24:25;;;;;;;24.50;18.30;;;4.10;99.90;;;;;;5034074;28;20168;-65
2021/03/09 12:26:50;;;;;;;22.93;17.23;;;4.20;99.90;;;;;;5034095;28;20171;-65
2021/03/09 12:29:16;;;;;;;25.77;17.93;;;4.10;99.90;;;;;;5033946;28;20164;-64
2021/03/09 12:31:41;;;;;;;24.07;18.80;;;4.10;99.90;;;;;;5033444;28;20191;-64
2021/03/09 12:34:07;;;;;;;26.70;20.13;;;4.20;99.90;;;;;;5033895;28;20260;-63
2021/03/09 12:36:33;;;;;;;35.00;20.33;;;4.20;99.90;;;;;;5033958;28;20854;-65
2021/03/09 12:38:58;;;;;;;22.43;18.20;;;4.10;99.90;;;;;;5033738;28;20659;-65
2021/03/09 12:41:24;;;;;;;25.07;20.07;;;4.10;99.90;;;;;;5033296;28;20200;-64
2021/03/09 12:43:50;;;;;;;28.43;20.20;;;4.10;99.90;;;;;;5033766;28;20251;-65
2021/03/09 12:46:16;;;;;;;26.93;20.37;;;4.20;99.90;;;;;;5033562;28;20407;-64
2021/03/09 12:48:42;;;;;;;29.53;19.33;;;4.10;99.90;;;;;;5033533;28;20173;-64
2021/03/09 12:51:07;;;;;;;29.40;22.47;;;4.20;99.90;;;;;;5033249;28;20424;-64